KSAD/SAD METAR and TAF weather

Enter ICAO airport designator
Station Type Date Time Source
KSAD METAR 2019/04/18 09:51 UTC NOAA

KSAD 180951Z AUTO 31010KT 10SM CLR 12/07 A3008 RMK AO2 SLP155 T01220072


Station Type Date Time Source
KSAD Decoded METAR 2019/04/18 09:51 UTC NOAA

SAFFORD MUNICIPAL AIRPORT, AZ, United States (KSAD) 32-51N 109-38W 962M
Apr 18, 2019 - 05:51 AM EDT / 2019.04.18 0951 UTC
Wind: from the NW (310 degrees) at 12 MPH (10 KT):0
Visibility: 10 mile(s):0
Sky conditions: clear
Temperature: 54.0 F (12.2 C)
Dew Point: 45.0 F (7.2 C)
Relative Humidity: 71%
Pressure (altimeter): 30.08 in. Hg (1018 hPa)
ob: KSAD 180951Z AUTO 31010KT 10SM CLR 12/07 A3008 RMK AO2 SLP155 T01220072
cycle: 10

Station Type Date Time Source
KSAD TAF UTC NOAA

Error!

Example: see airport list